createdAt,value
2022-08-14T00:02:26.997Z,3.33
2022-08-14T00:04:55.829Z,3.50
2022-08-14T00:07:23.841Z,4.30
2022-08-14T00:10:01.246Z,4.15
2022-08-14T00:12:33.807Z,3.83
2022-08-14T00:15:15.362Z,3.70
2022-08-14T00:17:48.477Z,4.03
2022-08-14T00:20:30.333Z,3.50
2022-08-14T00:23:08.365Z,3.70
2022-08-14T00:25:43.857Z,4.03
2022-08-14T00:28:32.516Z,3.83
2022-08-14T00:31:00.930Z,3.35
2022-08-14T00:33:52.469Z,3.70
2022-08-14T00:36:35.888Z,2.95
2022-08-14T00:39:06.723Z,4.00
2022-08-14T00:41:38.822Z,4.18
2022-08-14T00:44:08.175Z,3.40
2022-08-14T00:46:38.607Z,3.83
2022-08-14T00:49:08.278Z,3.70
2022-08-14T00:51:41.105Z,3.90
2022-08-14T00:54:11.012Z,3.78
2022-08-14T00:56:45.786Z,3.50
2022-08-14T00:59:14.849Z,3.55
2022-08-14T01:01:44.763Z,3.90
2022-08-14T01:04:51.770Z,3.58
2022-08-14T01:07:07.478Z,3.60
2022-08-14T01:09:37.823Z,4.25
2022-08-14T01:12:07.958Z,4.07
2022-08-14T01:14:36.427Z,4.07
2022-08-14T01:17:05.146Z,4.28
2022-08-14T01:19:55.299Z,3.28
2022-08-14T01:22:26.944Z,4.25
2022-08-14T01:24:57.887Z,4.20
2022-08-14T01:27:27.770Z,4.20
2022-08-14T01:30:03.618Z,4.18
2022-08-14T01:32:37.285Z,4.00
2022-08-14T01:35:21.297Z,4.75
2022-08-14T01:37:57.076Z,3.65
2022-08-14T01:40:33.320Z,3.65
2022-08-14T01:43:18.947Z,4.32
2022-08-14T01:45:57.590Z,4.45
2022-08-14T01:48:37.338Z,3.95
2022-08-14T01:51:18.833Z,3.45
2022-08-14T01:53:54.728Z,3.60
2022-08-14T01:56:39.892Z,3.72
2022-08-14T01:59:20.108Z,3.60
2022-08-14T02:01:58.046Z,3.60
2022-08-14T02:04:55.872Z,3.50
2022-08-14T02:07:34.446Z,3.40
2022-08-14T02:10:15.530Z,3.20
2022-08-14T02:12:54.015Z,3.88
2022-08-14T02:15:26.454Z,3.50
2022-08-14T02:17:54.262Z,3.55
2022-08-14T02:20:23.811Z,3.55
2022-08-14T02:22:55.002Z,3.90
2022-08-14T02:25:24.620Z,3.53
2022-08-14T02:28:23.175Z,3.80
2022-08-14T02:30:46.309Z,3.50
2022-08-14T02:33:14.271Z,3.38
2022-08-14T02:35:43.737Z,3.40
2022-08-14T02:38:30.444Z,3.35
2022-08-14T02:41:02.240Z,3.40
2022-08-14T02:43:46.335Z,4.10
2022-08-14T02:46:20.495Z,3.65
2022-08-14T02:49:03.761Z,3.22
2022-08-14T02:51:36.516Z,3.47
2022-08-14T02:54:07.852Z,3.42
2022-08-14T02:57:16.317Z,3.60
2022-08-14T02:59:33.612Z,3.40
2022-08-14T03:02:03.406Z,3.08
2022-08-14T03:04:32.703Z,3.50
2022-08-14T03:07:07.600Z,3.05
2022-08-14T03:10:26.092Z,3.38
2022-08-14T03:12:31.889Z,2.70
2022-08-14T03:15:13.988Z,3.28
2022-08-14T03:17:57.305Z,3.60
2022-08-14T03:20:30.511Z,3.53
2022-08-14T03:23:03.349Z,3.30
2022-08-14T03:25:37.946Z,3.03
2022-08-14T03:28:07.829Z,3.03
2022-08-14T03:30:44.452Z,3.35
2022-08-14T03:33:15.688Z,3.13
2022-08-14T03:35:59.516Z,3.47
2022-08-14T03:39:14.094Z,3.42
2022-08-14T03:41:19.538Z,2.85
2022-08-14T03:43:57.531Z,2.95
2022-08-14T03:46:52.335Z,3.15
2022-08-14T03:49:29.449Z,3.08
2022-08-14T03:52:00.374Z,2.92
2022-08-14T03:54:29.893Z,2.85
2022-08-14T03:57:02.673Z,3.20
2022-08-14T03:59:32.905Z,3.08
2022-08-14T04:02:02.381Z,3.05
2022-08-14T04:04:33.568Z,2.70
2022-08-14T04:07:01.871Z,3.17
2022-08-14T04:09:29.785Z,3.22
2022-08-14T04:11:59.635Z,2.95
2022-08-14T04:14:29.426Z,3.60
2022-08-14T04:16:57.464Z,3.05
2022-08-14T04:19:28.079Z,2.80
2022-08-14T04:22:03.523Z,3.30
2022-08-14T04:24:37.837Z,3.00
2022-08-14T04:27:09.743Z,3.30
2022-08-14T04:29:45.074Z,2.83
2022-08-14T04:33:02.479Z,3.03
2022-08-14T04:35:07.187Z,2.83
2022-08-14T04:37:54.373Z,2.80
2022-08-14T04:40:41.022Z,3.00
2022-08-14T04:43:38.330Z,3.17
2022-08-14T04:46:57.475Z,2.80
2022-08-14T04:49:00.538Z,3.40
2022-08-14T04:51:30.141Z,3.13
2022-08-14T04:56:47.891Z,2.90
2022-08-14T04:59:15.803Z,3.13
2022-08-14T05:01:49.824Z,3.28
2022-08-14T05:04:21.396Z,3.17
2022-08-14T05:06:53.608Z,2.90
2022-08-14T05:09:24.081Z,2.70
2022-08-14T05:11:53.216Z,2.63
2022-08-14T05:14:45.232Z,2.75
2022-08-14T05:17:12.347Z,2.67
2022-08-14T05:19:44.662Z,2.88
2022-08-14T05:22:28.746Z,2.70
2022-08-14T05:24:57.075Z,2.90
2022-08-14T05:27:25.841Z,3.38
2022-08-14T05:29:59.003Z,2.80
2022-08-14T05:32:27.953Z,3.65
2022-08-14T05:35:00.419Z,2.90
2022-08-14T05:37:29.869Z,2.58
2022-08-14T05:40:00.593Z,2.97
2022-08-14T05:42:32.226Z,2.75
2022-08-14T05:45:04.511Z,3.20
2022-08-14T05:47:39.218Z,2.90
2022-08-14T05:50:17.607Z,2.75
2022-08-14T05:52:48.386Z,3.28
2022-08-14T05:55:21.928Z,3.28
2022-08-14T05:58:00.166Z,3.17
2022-08-14T06:00:38.770Z,3.13
2022-08-14T06:03:12.929Z,3.13
2022-08-14T06:05:41.495Z,2.65
2022-08-14T06:08:31.460Z,3.33
2022-08-14T06:11:06.429Z,3.20
2022-08-14T06:13:41.124Z,3.33
2022-08-14T06:16:18.233Z,3.38
2022-08-14T06:18:51.838Z,3.30
2022-08-14T06:21:22.636Z,3.10
2022-08-14T06:23:51.401Z,2.60
2022-08-14T06:26:20.667Z,2.85
2022-08-14T06:28:52.343Z,2.80
2022-08-14T06:31:22.878Z,3.33
2022-08-14T06:35:03.351Z,2.80
2022-08-14T06:36:39.409Z,2.90
2022-08-14T06:39:10.319Z,2.88
2022-08-14T06:41:57.803Z,2.95
2022-08-14T06:44:32.241Z,3.20
2022-08-14T06:47:02.883Z,3.15
2022-08-14T06:49:44.153Z,3.10
2022-08-14T06:52:16.228Z,3.40
2022-08-14T06:54:45.638Z,3.00
2022-08-14T06:57:14.190Z,2.85
2022-08-14T06:59:42.280Z,3.05
2022-08-14T07:02:30.007Z,3.40
2022-08-14T07:05:20.798Z,3.17
2022-08-14T07:07:51.119Z,3.38
2022-08-14T07:10:19.374Z,3.00
2022-08-14T07:13:01.104Z,3.00
2022-08-14T07:15:33.708Z,2.70
2022-08-14T07:18:04.793Z,3.17
2022-08-14T07:20:37.655Z,3.47
2022-08-14T07:23:11.088Z,3.15
2022-08-14T07:25:48.737Z,3.30
2022-08-14T07:28:25.551Z,3.05
2022-08-14T07:31:04.579Z,2.90
2022-08-14T07:33:41.844Z,3.22
2022-08-14T07:36:27.886Z,3.22
2022-08-14T07:39:00.416Z,3.22
2022-08-14T07:41:34.141Z,3.25
2022-08-14T07:44:29.438Z,2.80
2022-08-14T07:46:52.852Z,2.72
2022-08-14T07:49:21.602Z,3.17
2022-08-14T07:51:52.143Z,3.05
2022-08-14T07:54:22.842Z,3.22
2022-08-14T07:57:06.598Z,3.33
2022-08-14T07:59:44.478Z,3.00
2022-08-14T08:02:18.628Z,3.47
2022-08-14T08:04:59.032Z,3.10
2022-08-14T08:07:31.146Z,3.00
2022-08-14T08:10:00.830Z,2.95
2022-08-14T08:12:32.122Z,3.33
2022-08-14T08:15:07.429Z,3.33
2022-08-14T08:17:42.706Z,3.22
2022-08-14T08:20:27.442Z,3.50
2022-08-14T08:23:00.231Z,2.67
2022-08-14T08:25:31.500Z,2.95
2022-08-14T08:28:19.892Z,2.80
2022-08-14T08:30:56.550Z,3.22
2022-08-14T08:33:32.283Z,3.45
2022-08-14T08:36:12.853Z,3.38
2022-08-14T08:39:18.341Z,3.38
2022-08-14T08:41:50.577Z,2.85
2022-08-14T08:44:32.758Z,3.13
2022-08-14T08:47:08.174Z,2.97
2022-08-14T08:49:52.816Z,3.10
2022-08-14T08:52:31.209Z,3.38
2022-08-14T08:55:04.987Z,3.13
2022-08-14T08:57:38.062Z,3.38
2022-08-14T09:00:25.683Z,3.47
2022-08-14T09:03:04.046Z,3.53
2022-08-14T09:05:34.387Z,3.50
2022-08-14T09:08:31.519Z,3.97
2022-08-14T09:11:19.735Z,4.47
2022-08-14T09:13:53.898Z,3.45
2022-08-14T09:16:24.908Z,4.60
2022-08-14T09:18:54.671Z,4.43
2022-08-14T09:21:23.842Z,4.50
2022-08-14T09:24:26.785Z,4.43
2022-08-14T09:26:49.251Z,5.03
2022-08-14T09:29:20.017Z,4.88
2022-08-14T09:31:57.055Z,6.57
2022-08-14T09:34:40.015Z,6.28
2022-08-14T09:37:44.742Z,6.55
2022-08-14T09:40:39.757Z,5.88
2022-08-14T09:43:29.765Z,6.07
2022-08-14T09:46:01.042Z,6.65
2022-08-14T09:48:31.438Z,7.30
2022-08-14T09:54:17.790Z,8.00
2022-08-14T09:56:45.993Z,8.70
2022-08-14T09:59:28.242Z,8.55
2022-08-14T10:02:00.017Z,8.07
2022-08-14T10:04:36.016Z,8.45
2022-08-14T10:07:10.534Z,8.48
2022-08-14T10:10:00.172Z,8.45
2022-08-14T10:12:53.091Z,8.50
2022-08-14T10:15:30.090Z,7.72
2022-08-14T10:18:18.215Z,8.65
2022-08-14T10:20:58.113Z,8.32
2022-08-14T10:23:39.901Z,9.15
2022-08-14T10:26:30.180Z,8.35
2022-08-14T10:29:19.649Z,8.52
2022-08-14T10:31:59.652Z,8.82
2022-08-14T10:34:35.661Z,7.78
2022-08-14T10:37:14.638Z,8.43
2022-08-14T10:39:51.386Z,8.55
2022-08-14T10:42:41.455Z,9.35
2022-08-14T10:45:24.387Z,8.50
2022-08-14T10:48:07.880Z,8.30
2022-08-14T10:50:46.601Z,8.15
2022-08-14T10:53:15.424Z,8.15
2022-08-14T10:55:45.397Z,8.75
2022-08-14T10:58:14.784Z,7.43
2022-08-14T11:00:56.581Z,9.15
2022-08-14T11:03:35.854Z,8.25
2022-08-14T11:06:20.217Z,8.57
2022-08-14T11:08:50.818Z,7.30
2022-08-14T11:11:19.858Z,8.20
2022-08-14T11:13:50.735Z,8.63
2022-08-14T11:16:19.612Z,9.68
2022-08-14T11:18:51.574Z,10.13
2022-08-14T11:21:24.380Z,18.95
2022-08-14T11:23:58.836Z,18.33
2022-08-14T11:26:30.035Z,19.08
2022-08-14T11:28:59.924Z,21.27
2022-08-14T11:31:38.537Z,23.83
2022-08-14T11:34:10.483Z,22.27
2022-08-14T11:37:02.174Z,24.27
2022-08-14T11:39:45.481Z,18.25
2022-08-14T11:42:58.114Z,19.25
2022-08-14T11:45:23.054Z,19.55
2022-08-14T11:48:12.741Z,16.92
2022-08-14T11:50:41.171Z,16.35
2022-08-14T11:53:31.656Z,15.98
2022-08-14T11:56:05.588Z,16.25
2022-08-14T11:58:36.301Z,14.60
2022-08-14T12:01:07.426Z,14.85
2022-08-14T12:03:52.344Z,13.88
2022-08-14T12:06:28.683Z,14.07
2022-08-14T12:09:08.505Z,13.63
2022-08-14T12:11:47.078Z,12.65
2022-08-14T12:14:30.710Z,12.90
2022-08-14T12:17:12.676Z,11.30
2022-08-14T12:20:00.254Z,11.63
2022-08-14T12:22:35.697Z,10.93
2022-08-14T12:25:11.514Z,10.68
2022-08-14T12:27:53.149Z,9.82
2022-08-14T12:30:41.750Z,9.65
2022-08-14T12:33:32.884Z,10.13
2022-08-14T12:36:06.160Z,8.68
2022-08-14T12:38:45.087Z,10.00
2022-08-14T12:41:22.164Z,9.88
2022-08-14T12:44:02.171Z,10.40
2022-08-14T12:46:30.893Z,8.40
2022-08-14T12:49:06.807Z,9.05
2022-08-14T12:51:35.830Z,9.23
2022-08-14T12:54:26.927Z,8.80
2022-08-14T12:57:04.975Z,8.60
2022-08-14T12:59:33.894Z,9.73
2022-08-14T13:02:12.807Z,8.50
2022-08-14T13:04:43.225Z,8.00
2022-08-14T13:07:11.143Z,7.40
2022-08-14T13:09:38.904Z,8.07
2022-08-14T13:12:32.602Z,7.70
2022-08-14T13:15:01.059Z,8.70
2022-08-14T13:17:29.411Z,7.93
2022-08-14T13:20:10.120Z,7.90
2022-08-14T13:22:44.515Z,7.65
2022-08-14T13:25:21.609Z,7.33
2022-08-14T13:27:54.604Z,8.07
2022-08-14T13:30:25.091Z,8.02
2022-08-14T13:32:54.808Z,7.68
2022-08-14T13:35:26.680Z,7.90
2022-08-14T13:37:54.851Z,7.47
2022-08-14T13:40:26.609Z,8.57
2022-08-14T13:42:57.101Z,7.85
2022-08-14T13:45:59.357Z,7.70
2022-08-14T13:48:28.637Z,7.53
2022-08-14T13:51:10.743Z,7.85
2022-08-14T13:54:07.195Z,8.80
2022-08-14T13:56:42.370Z,7.55
2022-08-14T13:59:12.008Z,8.13
2022-08-14T14:01:51.592Z,7.45
2022-08-14T14:04:20.321Z,7.35
2022-08-14T14:06:51.073Z,7.28
2022-08-14T14:09:32.430Z,6.97
2022-08-14T14:12:36.481Z,7.15
2022-08-14T14:15:13.751Z,7.80
2022-08-14T14:17:44.175Z,7.32
2022-08-14T14:20:34.598Z,7.82
2022-08-14T14:23:09.296Z,7.47
2022-08-14T14:25:46.143Z,7.85
2022-08-14T14:28:24.342Z,7.78
2022-08-14T14:30:57.505Z,7.40
2022-08-14T14:33:47.374Z,7.28
2022-08-14T14:36:22.032Z,7.40
2022-08-14T14:38:59.595Z,7.20
2022-08-14T14:41:37.706Z,6.75
2022-08-14T14:44:09.030Z,6.60
2022-08-14T14:46:41.429Z,6.60
2022-08-14T14:49:14.808Z,6.55
2022-08-14T14:51:51.137Z,6.45
2022-08-14T14:54:32.184Z,6.57
2022-08-14T14:57:09.284Z,6.97
2022-08-14T14:59:37.649Z,6.10
2022-08-14T15:02:08.206Z,6.78
2022-08-14T15:04:43.718Z,6.18
2022-08-14T15:09:41.022Z,5.95
2022-08-14T15:12:34.711Z,6.55
2022-08-14T15:15:08.057Z,6.70
2022-08-14T15:17:40.878Z,5.70
2022-08-14T15:20:17.347Z,6.82
2022-08-14T15:22:58.053Z,5.55
2022-08-14T15:25:26.365Z,6.60
2022-08-14T15:27:55.153Z,5.68
2022-08-14T15:30:23.638Z,5.57
2022-08-14T15:32:53.139Z,5.55
2022-08-14T15:35:25.568Z,5.85
2022-08-14T15:37:56.026Z,5.85
2022-08-14T15:40:24.540Z,5.32
2022-08-14T15:42:52.711Z,5.72
2022-08-14T15:45:21.776Z,4.97
2022-08-14T15:47:51.741Z,6.15
2022-08-14T15:50:20.435Z,5.53
2022-08-14T15:52:48.899Z,6.03
2022-08-14T15:55:17.322Z,5.57
2022-08-14T15:58:02.408Z,5.97
2022-08-14T16:00:53.279Z,5.65
2022-08-14T16:03:27.612Z,5.85
2022-08-14T16:06:15.499Z,5.80
2022-08-14T16:08:50.162Z,5.10
2022-08-14T16:11:21.983Z,5.45
2022-08-14T16:13:50.376Z,5.63
2022-08-14T16:16:49.178Z,5.40
2022-08-14T16:19:14.567Z,5.22
2022-08-14T16:22:02.097Z,5.90
2022-08-14T16:24:57.833Z,5.20
2022-08-14T16:27:37.260Z,5.72
2022-08-14T16:30:25.588Z,5.55
2022-08-14T16:32:57.672Z,5.18
2022-08-14T16:35:43.459Z,5.93
2022-08-14T16:41:23.183Z,5.45
2022-08-14T16:43:59.139Z,5.70
2022-08-14T16:46:31.623Z,5.35
2022-08-14T16:49:05.812Z,5.53
2022-08-14T16:51:38.316Z,5.85
2022-08-14T16:54:10.631Z,5.30
2022-08-14T16:57:13.220Z,4.93
2022-08-14T16:59:51.889Z,5.57
2022-08-14T17:02:42.810Z,5.60
2022-08-14T17:05:25.050Z,5.72
2022-08-14T17:08:32.342Z,6.00
2022-08-14T17:10:54.276Z,5.32
2022-08-14T17:13:59.215Z,5.75
2022-08-14T17:16:24.878Z,5.85
2022-08-14T17:19:00.869Z,5.20
2022-08-14T17:21:32.341Z,5.78
2022-08-14T17:24:51.406Z,5.32
2022-08-14T17:26:56.440Z,5.72
2022-08-14T17:29:31.233Z,5.28
2022-08-14T17:32:28.465Z,5.93
2022-08-14T17:34:58.012Z,6.35
2022-08-14T17:37:34.294Z,5.73
2022-08-14T17:40:15.191Z,6.37
2022-08-14T17:42:51.508Z,6.53
2022-08-14T17:45:41.611Z,5.07
2022-08-14T17:49:15.913Z,5.68
2022-08-14T17:51:23.380Z,6.50
2022-08-14T17:54:01.451Z,5.25
2022-08-14T17:56:32.292Z,5.75
2022-08-14T17:59:05.357Z,5.93
2022-08-14T18:01:37.923Z,6.00
2022-08-14T18:04:24.925Z,6.03
2022-08-14T18:07:16.334Z,6.07
2022-08-14T18:09:57.201Z,6.03
2022-08-14T18:12:37.043Z,6.15
2022-08-14T18:15:17.606Z,5.65
2022-08-14T18:17:52.676Z,5.85
2022-08-14T18:21:42.103Z,6.22
2022-08-14T18:23:14.354Z,6.50
2022-08-14T18:25:51.582Z,6.10
2022-08-14T18:28:51.680Z,6.20
2022-08-14T18:31:22.753Z,5.95
2022-08-14T18:34:00.682Z,6.43
2022-08-14T18:36:57.075Z,6.45
2022-08-14T18:40:01.547Z,6.65
2022-08-14T18:42:30.449Z,7.45
2022-08-14T18:45:01.006Z,6.43
2022-08-14T18:48:03.407Z,7.28
2022-08-14T18:50:31.125Z,6.22
2022-08-14T18:53:11.238Z,6.35
2022-08-14T18:55:52.902Z,6.63
2022-08-14T18:58:24.638Z,7.03
2022-08-14T19:00:58.805Z,6.38
2022-08-14T19:03:46.400Z,7.55
2022-08-14T19:06:16.810Z,7.28
2022-08-14T19:08:49.811Z,7.70
2022-08-14T19:11:34.504Z,7.30
2022-08-14T19:14:04.964Z,7.53
2022-08-14T19:16:37.784Z,6.60
2022-08-14T19:19:12.740Z,6.60
2022-08-14T19:21:56.301Z,6.45
2022-08-14T19:24:43.928Z,6.85
2022-08-14T19:27:16.726Z,7.05
2022-08-14T19:29:47.811Z,6.82
2022-08-14T19:32:40.363Z,7.57
2022-08-14T19:35:49.501Z,7.05
2022-08-14T19:38:44.885Z,6.43
2022-08-14T19:41:19.118Z,6.93
2022-08-14T19:43:55.276Z,6.82
2022-08-14T19:46:38.496Z,7.15
2022-08-14T19:49:23.124Z,7.00
2022-08-14T19:52:17.655Z,6.65
2022-08-14T19:54:52.538Z,7.50
2022-08-14T19:57:23.841Z,6.60
2022-08-14T20:00:01.200Z,7.30
2022-08-14T20:02:46.503Z,7.15
2022-08-14T20:05:16.388Z,7.55
2022-08-14T20:07:59.758Z,7.00
2022-08-14T20:11:03.174Z,7.68
2022-08-14T20:13:32.617Z,7.53
2022-08-14T20:18:57.616Z,7.10
2022-08-14T20:21:34.546Z,7.25
2022-08-14T20:24:41.194Z,7.35
2022-08-14T20:27:21.990Z,7.10
2022-08-14T20:30:28.989Z,7.45
2022-08-14T20:32:58.523Z,7.03
2022-08-14T20:35:38.304Z,6.65
2022-08-14T20:38:29.329Z,6.75
2022-08-14T20:41:07.548Z,6.28
2022-08-14T20:43:58.547Z,7.00
2022-08-14T20:46:31.223Z,6.60
2022-08-14T20:49:12.555Z,7.45
2022-08-14T20:51:54.788Z,6.82
2022-08-14T20:54:36.420Z,7.05
2022-08-14T20:57:20.057Z,6.70
2022-08-14T20:59:57.151Z,6.80
2022-08-14T21:02:49.885Z,6.55
2022-08-14T21:05:22.566Z,6.07
2022-08-14T21:08:07.856Z,6.63
2022-08-14T21:10:44.546Z,6.15
2022-08-14T21:14:08.648Z,6.00
2022-08-14T21:16:33.644Z,6.88
2022-08-14T21:19:02.275Z,7.05
2022-08-14T21:21:40.615Z,7.53
2022-08-14T21:24:38.430Z,7.05
2022-08-14T21:27:13.170Z,7.85
2022-08-14T21:29:55.543Z,6.40
2022-08-14T21:32:50.062Z,6.75
2022-08-14T21:35:26.379Z,6.75
2022-08-14T21:37:55.814Z,6.82
2022-08-14T21:40:41.997Z,6.82
2022-08-14T21:43:18.140Z,6.85
2022-08-14T21:45:54.083Z,6.43
2022-08-14T21:48:30.128Z,6.38
2022-08-14T21:51:53.631Z,7.15
2022-08-14T21:53:57.971Z,6.28
2022-08-14T21:56:39.063Z,6.22
2022-08-14T21:59:17.719Z,7.95
2022-08-14T22:02:00.726Z,6.18
2022-08-14T22:04:40.563Z,6.10
2022-08-14T22:07:16.913Z,6.57
2022-08-14T22:09:54.646Z,6.40
2022-08-14T22:12:58.026Z,6.95
2022-08-14T22:15:16.641Z,5.18
2022-08-14T22:17:51.057Z,6.70
2022-08-14T22:20:23.052Z,6.63
2022-08-14T22:22:56.124Z,6.63
2022-08-14T22:25:33.353Z,7.10
2022-08-14T22:28:07.528Z,6.40
2022-08-14T22:30:38.133Z,6.00
2022-08-14T22:33:13.514Z,5.85
2022-08-14T22:35:41.845Z,7.38
2022-08-14T22:38:37.407Z,6.80
2022-08-14T22:41:25.681Z,6.63
2022-08-14T22:43:52.557Z,6.43
2022-08-14T22:46:21.704Z,7.20
2022-08-14T22:48:50.051Z,6.28
2022-08-14T22:51:19.825Z,7.38
2022-08-14T22:53:49.026Z,6.32
2022-08-14T22:56:29.346Z,6.18
2022-08-14T22:59:00.659Z,5.65
2022-08-14T23:01:56.337Z,6.65
2022-08-14T23:04:34.812Z,5.40
2022-08-14T23:07:23.184Z,6.65
2022-08-14T23:09:57.751Z,6.03
2022-08-14T23:12:54.604Z,6.35
2022-08-14T23:15:29.891Z,5.72
2022-08-14T23:17:59.003Z,5.65
2022-08-14T23:20:29.428Z,5.68
2022-08-14T23:22:58.086Z,5.72
2022-08-14T23:25:57.483Z,6.10
2022-08-14T23:28:33.495Z,5.80
2022-08-14T23:31:14.050Z,6.22
2022-08-14T23:33:46.014Z,5.55
2022-08-14T23:36:32.201Z,5.70
2022-08-14T23:39:10.513Z,5.72
2022-08-14T23:41:45.932Z,5.60
2022-08-14T23:44:21.526Z,5.97
2022-08-14T23:46:56.459Z,5.38
2022-08-14T23:49:26.229Z,6.28
2022-08-14T23:52:51.014Z,5.70
2022-08-14T23:54:48.098Z,5.53
2022-08-14T23:57:19.502Z,5.85
2022-08-14T23:59:54.738Z,5.70
